sensor_id;sensor_type;location;lat;lon;timestamp;pressure;altitude;pressure_sealevel;temperature;humidity
46846;BME280;33947;46.804;134.252;2024-03-25T00:00:57;101628.34;;;0.66;31.05
46846;BME280;33947;46.804;134.252;2024-03-25T00:04:02;101627.50;;;0.67;31.79
46846;BME280;33947;46.804;134.252;2024-03-25T00:07:07;101634.63;;;0.40;30.54
46846;BME280;33947;46.804;134.252;2024-03-25T00:10:13;101632.06;;;0.13;30.41
46846;BME280;33947;46.804;134.252;2024-03-25T00:13:18;101628.72;;;0.48;32.29
46846;BME280;33947;46.804;134.252;2024-03-25T00:16:25;101630.00;;;1.68;31.77
46846;BME280;33947;46.804;134.252;2024-03-25T00:19:30;101635.81;;;2.34;31.21
46846;BME280;33947;46.804;134.252;2024-03-25T00:22:35;101634.91;;;1.92;29.53
46846;BME280;33947;46.804;134.252;2024-03-25T00:25:41;101625.81;;;2.60;30.52
46846;BME280;33947;46.804;134.252;2024-03-25T00:28:46;101633.97;;;1.88;30.89
46846;BME280;33947;46.804;134.252;2024-03-25T00:31:52;101628.09;;;2.00;30.54
46846;BME280;33947;46.804;134.252;2024-03-25T00:34:56;101627.69;;;1.82;29.80
46846;BME280;33947;46.804;134.252;2024-03-25T00:38:02;101621.00;;;1.95;30.60
46846;BME280;33947;46.804;134.252;2024-03-25T00:41:08;101646.13;;;2.25;30.27
46846;BME280;33947;46.804;134.252;2024-03-25T00:44:14;101629.91;;;1.26;29.45
46846;BME280;33947;46.804;134.252;2024-03-25T00:47:18;101643.69;;;1.19;30.14
46846;BME280;33947;46.804;134.252;2024-03-25T00:50:24;101640.78;;;1.43;30.31
46846;BME280;33947;46.804;134.252;2024-03-25T00:53:28;101642.38;;;2.13;28.74
46846;BME280;33947;46.804;134.252;2024-03-25T00:56:35;101636.16;;;2.51;27.90
46846;BME280;33947;46.804;134.252;2024-03-25T00:59:40;101642.00;;;2.38;28.24
46846;BME280;33947;46.804;134.252;2024-03-25T01:02:47;101636.66;;;3.27;29.46
46846;BME280;33947;46.804;134.252;2024-03-25T01:05:52;101631.44;;;3.88;27.87
46846;BME280;33947;46.804;134.252;2024-03-25T01:08:57;101631.59;;;4.01;27.40
46846;BME280;33947;46.804;134.252;2024-03-25T01:12:04;101620.00;;;3.86;28.61
46846;BME280;33947;46.804;134.252;2024-03-25T01:15:09;101631.75;;;4.87;27.53
46846;BME280;33947;46.804;134.252;2024-03-25T01:18:15;101632.53;;;3.44;27.46
46846;BME280;33947;46.804;134.252;2024-03-25T01:21:19;101626.47;;;4.10;27.52
46846;BME280;33947;46.804;134.252;2024-03-25T01:24:24;101632.81;;;3.61;29.44
46846;BME280;33947;46.804;134.252;2024-03-25T01:27:31;101623.91;;;4.92;28.94
46846;BME280;33947;46.804;134.252;2024-03-25T01:30:37;101633.22;;;4.59;28.11
46846;BME280;33947;46.804;134.252;2024-03-25T01:33:43;101599.84;;;4.62;26.32
46846;BME280;33947;46.804;134.252;2024-03-25T01:36:48;101634.00;;;4.50;27.52
46846;BME280;33947;46.804;134.252;2024-03-25T01:39:52;101626.44;;;4.84;26.95
46846;BME280;33947;46.804;134.252;2024-03-25T01:43:00;101634.59;;;4.26;27.37
46846;BME280;33947;46.804;134.252;2024-03-25T01:46:05;101607.75;;;3.90;26.76
46846;BME280;33947;46.804;134.252;2024-03-25T01:49:11;101613.19;;;4.01;28.63
46846;BME280;33947;46.804;134.252;2024-03-25T01:52:16;101629.97;;;4.85;28.05
46846;BME280;33947;46.804;134.252;2024-03-25T01:55:23;101614.31;;;4.18;27.67
46846;BME280;33947;46.804;134.252;2024-03-25T01:58:30;101612.63;;;4.28;28.61
46846;BME280;33947;46.804;134.252;2024-03-25T02:01:36;101613.06;;;4.65;28.51
46846;BME280;33947;46.804;134.252;2024-03-25T02:04:59;101581.72;;;3.47;28.54
46846;BME280;33947;46.804;134.252;2024-03-25T02:08:06;101610.41;;;3.30;29.08
46846;BME280;33947;46.804;134.252;2024-03-25T02:11:11;101597.97;;;3.21;30.02
46846;BME280;33947;46.804;134.252;2024-03-25T02:14:19;101592.66;;;3.18;28.32
46846;BME280;33947;46.804;134.252;2024-03-25T02:17:26;101605.81;;;2.67;30.90
46846;BME280;33947;46.804;134.252;2024-03-25T02:20:30;101592.38;;;3.01;29.74
46846;BME280;33947;46.804;134.252;2024-03-25T02:23:36;101588.13;;;3.09;29.64
46846;BME280;33947;46.804;134.252;2024-03-25T02:26:44;101590.22;;;2.76;30.28
46846;BME280;33947;46.804;134.252;2024-03-25T02:29:49;101588.59;;;3.37;30.20
46846;BME280;33947;46.804;134.252;2024-03-25T02:32:54;101598.31;;;2.41;29.42
46846;BME280;33947;46.804;134.252;2024-03-25T02:35:59;101597.38;;;2.39;31.81
46846;BME280;33947;46.804;134.252;2024-03-25T02:39:03;101594.75;;;2.39;29.69
46846;BME280;33947;46.804;134.252;2024-03-25T02:42:09;101592.84;;;2.76;31.43
46846;BME280;33947;46.804;134.252;2024-03-25T02:45:15;101579.59;;;2.70;31.93
46846;BME280;33947;46.804;134.252;2024-03-25T02:48:19;101585.34;;;2.98;31.72
46846;BME280;33947;46.804;134.252;2024-03-25T02:51:26;101595.72;;;2.43;32.30
46846;BME280;33947;46.804;134.252;2024-03-25T02:54:30;101587.19;;;2.10;31.54
46846;BME280;33947;46.804;134.252;2024-03-25T02:57:37;101584.38;;;2.45;32.10
46846;BME280;33947;46.804;134.252;2024-03-25T03:00:42;101588.75;;;2.94;31.94
46846;BME280;33947;46.804;134.252;2024-03-25T03:03:47;101579.81;;;2.35;30.69
46846;BME280;33947;46.804;134.252;2024-03-25T03:06:52;101591.50;;;2.08;32.79
46846;BME280;33947;46.804;134.252;2024-03-25T03:09:56;101582.66;;;2.03;31.07
46846;BME280;33947;46.804;134.252;2024-03-25T03:13:03;101588.78;;;2.46;33.13
46846;BME280;33947;46.804;134.252;2024-03-25T03:16:09;101575.94;;;2.62;32.21
46846;BME280;33947;46.804;134.252;2024-03-25T03:19:15;101575.88;;;2.13;31.42
46846;BME280;33947;46.804;134.252;2024-03-25T03:22:19;101579.16;;;2.47;33.46
46846;BME280;33947;46.804;134.252;2024-03-25T03:25:25;101537.66;;;2.29;33.37
46846;BME280;33947;46.804;134.252;2024-03-25T03:28:32;101566.72;;;1.95;31.96
46846;BME280;33947;46.804;134.252;2024-03-25T03:31:38;101576.66;;;2.10;31.99
46846;BME280;33947;46.804;134.252;2024-03-25T03:34:43;101568.00;;;1.33;30.30
46846;BME280;33947;46.804;134.252;2024-03-25T03:37:47;101571.31;;;1.64;32.88
46846;BME280;33947;46.804;134.252;2024-03-25T03:40:59;101572.59;;;2.25;34.19
46846;BME280;33947;46.804;134.252;2024-03-25T03:44:07;101567.47;;;2.32;32.60
46846;BME280;33947;46.804;134.252;2024-03-25T03:47:12;101513.72;;;2.13;31.27
46846;BME280;33947;46.804;134.252;2024-03-25T03:50:21;101561.16;;;2.21;31.83
46846;BME280;33947;46.804;134.252;2024-03-25T03:53:26;101542.50;;;2.07;32.26
46846;BME280;33947;46.804;134.252;2024-03-25T03:56:31;101555.66;;;1.67;29.75
46846;BME280;33947;46.804;134.252;2024-03-25T03:59:38;101553.16;;;2.15;31.50
46846;BME280;33947;46.804;134.252;2024-03-25T04:02:43;101552.81;;;1.98;31.05
46846;BME280;33947;46.804;134.252;2024-03-25T04:05:49;101556.25;;;1.95;29.76
46846;BME280;33947;46.804;134.252;2024-03-25T04:08:53;101549.75;;;1.78;30.96
46846;BME280;33947;46.804;134.252;2024-03-25T04:11:59;101546.97;;;1.70;29.98
46846;BME280;33947;46.804;134.252;2024-03-25T04:15:06;101546.25;;;2.22;31.39
46846;BME280;33947;46.804;134.252;2024-03-25T04:18:12;101534.72;;;2.12;30.54
46846;BME280;33947;46.804;134.252;2024-03-25T04:21:22;101531.47;;;1.82;29.84
46846;BME280;33947;46.804;134.252;2024-03-25T04:24:28;101509.72;;;2.32;31.64
46846;BME280;33947;46.804;134.252;2024-03-25T04:27:32;101529.53;;;2.16;31.23
46846;BME280;33947;46.804;134.252;2024-03-25T04:30:39;101534.31;;;2.38;31.29
46846;BME280;33947;46.804;134.252;2024-03-25T04:33:43;101529.41;;;2.56;31.12
46846;BME280;33947;46.804;134.252;2024-03-25T04:36:48;101519.53;;;2.94;30.89
46846;BME280;33947;46.804;134.252;2024-03-25T04:39:53;101526.94;;;2.64;30.23
46846;BME280;33947;46.804;134.252;2024-03-25T04:42:57;101516.47;;;2.67;31.66
46846;BME280;33947;46.804;134.252;2024-03-25T04:46:04;101509.41;;;2.65;31.46
46846;BME280;33947;46.804;134.252;2024-03-25T04:49:08;101514.50;;;2.57;32.19
46846;BME280;33947;46.804;134.252;2024-03-25T04:52:13;101514.66;;;2.65;32.83
46846;BME280;33947;46.804;134.252;2024-03-25T04:55:19;101515.38;;;2.56;33.05
46846;BME280;33947;46.804;134.252;2024-03-25T04:58:24;101502.38;;;2.62;33.91
46846;BME280;33947;46.804;134.252;2024-03-25T05:01:29;101498.38;;;2.86;32.54
46846;BME280;33947;46.804;134.252;2024-03-25T05:04:34;101492.28;;;2.38;32.43
46846;BME280;33947;46.804;134.252;2024-03-25T05:07:38;101487.94;;;2.40;33.02
46846;BME280;33947;46.804;134.252;2024-03-25T05:10:42;101500.03;;;2.30;33.57
46846;BME280;33947;46.804;134.252;2024-03-25T05:13:46;101491.25;;;2.28;33.80
46846;BME280;33947;46.804;134.252;2024-03-25T05:16:53;101488.94;;;2.45;32.97
46846;BME280;33947;46.804;134.252;2024-03-25T05:19:56;101485.50;;;2.51;32.82
46846;BME280;33947;46.804;134.252;2024-03-25T05:23:00;101494.38;;;2.08;32.57
46846;BME280;33947;46.804;134.252;2024-03-25T05:26:05;101465.81;;;2.24;33.14
46846;BME280;33947;46.804;134.252;2024-03-25T05:29:09;101489.44;;;2.25;32.84
46846;BME280;33947;46.804;134.252;2024-03-25T05:32:16;101489.53;;;2.30;34.18
46846;BME280;33947;46.804;134.252;2024-03-25T05:35:21;101486.66;;;2.67;32.93
46846;BME280;33947;46.804;134.252;2024-03-25T05:38:25;101484.34;;;2.33;32.79
46846;BME280;33947;46.804;134.252;2024-03-25T05:41:29;101461.22;;;2.13;32.54
46846;BME280;33947;46.804;134.252;2024-03-25T05:44:33;101481.34;;;2.13;32.08
46846;BME280;33947;46.804;134.252;2024-03-25T05:47:39;101487.88;;;1.89;32.82
46846;BME280;33947;46.804;134.252;2024-03-25T05:50:43;101491.19;;;2.25;33.43
46846;BME280;33947;46.804;134.252;2024-03-25T05:53:47;101488.06;;;1.98;32.77
46846;BME280;33947;46.804;134.252;2024-03-25T05:56:51;101484.88;;;2.15;33.71
46846;BME280;33947;46.804;134.252;2024-03-25T05:59:55;101488.31;;;2.11;34.49
46846;BME280;33947;46.804;134.252;2024-03-25T06:03:02;101489.06;;;2.05;33.59
46846;BME280;33947;46.804;134.252;2024-03-25T06:06:06;101491.53;;;1.96;34.10
46846;BME280;33947;46.804;134.252;2024-03-25T06:09:10;101486.97;;;2.33;34.62
46846;BME280;33947;46.804;134.252;2024-03-25T06:12:14;101489.44;;;2.24;34.63
46846;BME280;33947;46.804;134.252;2024-03-25T06:15:18;101487.69;;;1.80;33.99
46846;BME280;33947;46.804;134.252;2024-03-25T06:18:25;101486.75;;;1.76;34.22
46846;BME280;33947;46.804;134.252;2024-03-25T06:21:29;101483.53;;;1.91;34.97
46846;BME280;33947;46.804;134.252;2024-03-25T06:24:33;101494.09;;;1.94;34.45
46846;BME280;33947;46.804;134.252;2024-03-25T06:27:37;101488.19;;;2.54;35.01
46846;BME280;33947;46.804;134.252;2024-03-25T06:30:42;101489.66;;;2.36;34.08
46846;BME280;33947;46.804;134.252;2024-03-25T06:34:07;101480.84;;;2.34;34.61
46846;BME280;33947;46.804;134.252;2024-03-25T06:37:21;101471.72;;;2.13;35.23
46846;BME280;33947;46.804;134.252;2024-03-25T06:40:25;101470.16;;;2.23;33.78
46846;BME280;33947;46.804;134.252;2024-03-25T06:43:29;101486.06;;;2.31;35.04
46846;BME280;33947;46.804;134.252;2024-03-25T06:46:33;101486.13;;;2.34;33.43
46846;BME280;33947;46.804;134.252;2024-03-25T06:49:39;101479.97;;;2.33;34.50
46846;BME280;33947;46.804;134.252;2024-03-25T06:52:43;101483.97;;;2.14;34.57
46846;BME280;33947;46.804;134.252;2024-03-25T06:55:55;101484.03;;;2.17;35.83
46846;BME280;33947;46.804;134.252;2024-03-25T06:59:00;101487.31;;;2.53;33.86
46846;BME280;33947;46.804;134.252;2024-03-25T07:02:05;101496.41;;;2.74;34.12
46846;BME280;33947;46.804;134.252;2024-03-25T07:05:11;101495.25;;;2.58;34.60
46846;BME280;33947;46.804;134.252;2024-03-25T07:08:16;101498.75;;;2.08;35.40
46846;BME280;33947;46.804;134.252;2024-03-25T07:11:20;101491.88;;;2.64;35.46
46846;BME280;33947;46.804;134.252;2024-03-25T07:14:25;101470.09;;;2.22;34.92
46846;BME280;33947;46.804;134.252;2024-03-25T07:17:29;101497.41;;;2.30;36.59
46846;BME280;33947;46.804;134.252;2024-03-25T07:20:35;101496.78;;;1.97;35.54
46846;BME280;33947;46.804;134.252;2024-03-25T07:23:40;101499.22;;;1.88;37.02
46846;BME280;33947;46.804;134.252;2024-03-25T07:26:44;101501.78;;;1.85;36.69
46846;BME280;33947;46.804;134.252;2024-03-25T07:29:48;101498.56;;;1.98;35.27
46846;BME280;33947;46.804;134.252;2024-03-25T07:32:52;101516.44;;;1.75;36.20
46846;BME280;33947;46.804;134.252;2024-03-25T07:35:58;101507.22;;;1.51;36.39
46846;BME280;33947;46.804;134.252;2024-03-25T07:39:03;101495.94;;;1.55;37.47
46846;BME280;33947;46.804;134.252;2024-03-25T07:42:08;101508.09;;;1.52;36.88
46846;BME280;33947;46.804;134.252;2024-03-25T07:45:12;101498.47;;;1.51;37.27
46846;BME280;33947;46.804;134.252;2024-03-25T07:48:16;101501.44;;;1.68;37.09
46846;BME280;33947;46.804;134.252;2024-03-25T07:51:22;101506.81;;;1.74;37.23
46846;BME280;33947;46.804;134.252;2024-03-25T07:54:26;101504.97;;;1.68;37.72
46846;BME280;33947;46.804;134.252;2024-03-25T07:57:30;101503.09;;;1.64;36.28
46846;BME280;33947;46.804;134.252;2024-03-25T08:00:35;101507.22;;;1.94;36.67
46846;BME280;33947;46.804;134.252;2024-03-25T08:03:39;101504.00;;;1.65;36.17
46846;BME280;33947;46.804;134.252;2024-03-25T08:06:45;101480.41;;;1.65;37.05
46846;BME280;33947;46.804;134.252;2024-03-25T08:09:50;101504.75;;;1.59;38.07
46846;BME280;33947;46.804;134.252;2024-03-25T08:12:54;101515.38;;;1.25;38.05
46846;BME280;33947;46.804;134.252;2024-03-25T08:15:59;101504.09;;;1.29;37.86
46846;BME280;33947;46.804;134.252;2024-03-25T08:19:03;101506.09;;;1.40;37.10
46846;BME280;33947;46.804;134.252;2024-03-25T08:22:09;101505.69;;;1.21;37.55
46846;BME280;33947;46.804;134.252;2024-03-25T08:25:13;101504.25;;;1.36;37.36
46846;BME280;33947;46.804;134.252;2024-03-25T08:28:19;101499.00;;;0.97;38.03
46846;BME280;33947;46.804;134.252;2024-03-25T08:31:23;101493.25;;;0.76;37.19
46846;BME280;33947;46.804;134.252;2024-03-25T08:34:28;101504.44;;;1.07;38.13
46846;BME280;33947;46.804;134.252;2024-03-25T08:37:33;101503.25;;;1.30;37.68
46846;BME280;33947;46.804;134.252;2024-03-25T08:40:37;101521.44;;;1.23;37.43
46846;BME280;33947;46.804;134.252;2024-03-25T08:43:41;101523.97;;;1.58;37.23
46846;BME280;33947;46.804;134.252;2024-03-25T08:46:45;101528.59;;;1.70;37.00
46846;BME280;33947;46.804;134.252;2024-03-25T08:49:52;101533.59;;;1.57;37.82
46846;BME280;33947;46.804;134.252;2024-03-25T08:52:57;101531.75;;;1.15;38.94
46846;BME280;33947;46.804;134.252;2024-03-25T08:56:01;101528.38;;;0.84;39.74
46846;BME280;33947;46.804;134.252;2024-03-25T08:59:05;101524.91;;;0.85;40.97
46846;BME280;33947;46.804;134.252;2024-03-25T09:02:10;101518.28;;;0.64;41.00
46846;BME280;33947;46.804;134.252;2024-03-25T09:05:14;101525.19;;;0.61;41.51
46846;BME280;33947;46.804;134.252;2024-03-25T09:08:20;101518.16;;;0.26;42.83
46846;BME280;33947;46.804;134.252;2024-03-25T09:11:23;101521.94;;;-0.25;46.34
46846;BME280;33947;46.804;134.252;2024-03-25T09:14:28;101517.00;;;-0.16;44.60
46846;BME280;33947;46.804;134.252;2024-03-25T09:17:36;101512.31;;;-0.26;43.61
46846;BME280;33947;46.804;134.252;2024-03-25T09:20:40;101509.00;;;-0.51;44.34
46846;BME280;33947;46.804;134.252;2024-03-25T09:23:46;101507.81;;;-0.61;45.16
46846;BME280;33947;46.804;134.252;2024-03-25T09:26:49;101515.28;;;-1.01;46.77
46846;BME280;33947;46.804;134.252;2024-03-25T09:29:54;101505.00;;;-0.96;45.67
46846;BME280;33947;46.804;134.252;2024-03-25T09:32:58;101508.91;;;-1.11;45.93
46846;BME280;33947;46.804;134.252;2024-03-25T09:36:02;101518.97;;;-0.96;44.85
46846;BME280;33947;46.804;134.252;2024-03-25T09:39:08;101525.22;;;-1.18;46.39
46846;BME280;33947;46.804;134.252;2024-03-25T09:42:12;101531.94;;;-1.51;47.77
46846;BME280;33947;46.804;134.252;2024-03-25T09:45:18;101532.97;;;-1.46;45.87
46846;BME280;33947;46.804;134.252;2024-03-25T09:48:23;101539.03;;;-1.47;45.09
46846;BME280;33947;46.804;134.252;2024-03-25T09:51:28;101545.19;;;-1.45;45.17
46846;BME280;33947;46.804;134.252;2024-03-25T09:54:34;101551.22;;;-1.47;44.48
46846;BME280;33947;46.804;134.252;2024-03-25T09:57:39;101549.53;;;-1.45;43.89
46846;BME280;33947;46.804;134.252;2024-03-25T10:00:44;101539.47;;;-1.34;44.05
46846;BME280;33947;46.804;134.252;2024-03-25T10:03:49;101533.16;;;-1.15;43.58
46846;BME280;33947;46.804;134.252;2024-03-25T10:06:53;101518.53;;;-1.08;43.07
46846;BME280;33947;46.804;134.252;2024-03-25T10:10:03;101544.19;;;-0.96;42.88
46846;BME280;33947;46.804;134.252;2024-03-25T10:13:07;101533.44;;;-1.06;42.02
46846;BME280;33947;46.804;134.252;2024-03-25T10:16:11;101554.75;;;-1.19;43.16
46846;BME280;33947;46.804;134.252;2024-03-25T10:19:16;101545.63;;;-1.32;42.41
46846;BME280;33947;46.804;134.252;2024-03-25T10:22:21;101546.03;;;-1.20;43.17
46846;BME280;33947;46.804;134.252;2024-03-25T10:25:31;101463.47;;;-1.69;42.57
46846;BME280;33947;46.804;134.252;2024-03-25T10:28:35;101542.84;;;-1.37;42.59
46846;BME280;33947;46.804;134.252;2024-03-25T10:31:39;101555.53;;;-1.48;43.77
46846;BME280;33947;46.804;134.252;2024-03-25T10:34:44;101567.13;;;-1.39;43.82
46846;BME280;33947;46.804;134.252;2024-03-25T10:37:50;101548.72;;;-1.44;43.72
46846;BME280;33947;46.804;134.252;2024-03-25T10:40:57;101562.69;;;-1.42;44.18
46846;BME280;33947;46.804;134.252;2024-03-25T10:44:04;101559.66;;;-1.79;46.91
46846;BME280;33947;46.804;134.252;2024-03-25T10:47:16;101558.00;;;-2.01;48.35
46846;BME280;33947;46.804;134.252;2024-03-25T10:50:26;101571.00;;;-2.03;47.93
46846;BME280;33947;46.804;134.252;2024-03-25T10:53:35;101575.69;;;-2.17;49.10
46846;BME280;33947;46.804;134.252;2024-03-25T10:56:42;101576.47;;;-1.95;47.67
46846;BME280;33947;46.804;134.252;2024-03-25T10:59:48;101579.97;;;-1.94;47.83
46846;BME280;33947;46.804;134.252;2024-03-25T11:02:53;101584.44;;;-1.92;47.36
46846;BME280;33947;46.804;134.252;2024-03-25T11:06:00;101592.63;;;-1.81;46.87
46846;BME280;33947;46.804;134.252;2024-03-25T11:09:05;101597.69;;;-1.85;46.93
46846;BME280;33947;46.804;134.252;2024-03-25T11:12:12;101599.38;;;-2.10;48.77
46846;BME280;33947;46.804;134.252;2024-03-25T11:15:17;101613.13;;;-2.14;49.05
46846;BME280;33947;46.804;134.252;2024-03-25T11:18:23;101600.03;;;-2.16;49.50
46846;BME280;33947;46.804;134.252;2024-03-25T11:21:29;101604.41;;;-2.38;51.43
46846;BME280;33947;46.804;134.252;2024-03-25T11:24:35;101604.00;;;-3.34;53.85
46846;BME280;33947;46.804;134.252;2024-03-25T11:27:43;101596.06;;;-3.37;53.06
46846;BME280;33947;46.804;134.252;2024-03-25T11:30:48;101605.22;;;-3.25;54.26
46846;BME280;33947;46.804;134.252;2024-03-25T11:33:53;101586.94;;;-3.27;53.35
46846;BME280;33947;46.804;134.252;2024-03-25T11:36:58;101608.34;;;-2.70;51.22
46846;BME280;33947;46.804;134.252;2024-03-25T11:40:03;101595.63;;;-2.84;51.38
46846;BME280;33947;46.804;134.252;2024-03-25T11:43:09;101602.28;;;-3.12;52.46
46846;BME280;33947;46.804;134.252;2024-03-25T11:46:18;101602.50;;;-3.07;53.14
46846;BME280;33947;46.804;134.252;2024-03-25T11:49:22;101602.84;;;-2.99;52.39
46846;BME280;33947;46.804;134.252;2024-03-25T11:52:31;101605.84;;;-3.10;53.27
46846;BME280;33947;46.804;134.252;2024-03-25T11:55:37;101612.06;;;-2.86;52.06
46846;BME280;33947;46.804;134.252;2024-03-25T11:58:42;101607.91;;;-3.02;52.53
46846;BME280;33947;46.804;134.252;2024-03-25T12:01:48;101569.09;;;-3.39;53.21
46846;BME280;33947;46.804;134.252;2024-03-25T12:04:52;101598.16;;;-3.28;53.49
46846;BME280;33947;46.804;134.252;2024-03-25T12:07:57;101611.84;;;-3.12;52.89
46846;BME280;33947;46.804;134.252;2024-03-25T12:11:02;101580.72;;;-3.30;52.81
46846;BME280;33947;46.804;134.252;2024-03-25T12:14:23;101601.69;;;-3.06;52.20
46846;BME280;33947;46.804;134.252;2024-03-25T12:17:28;101600.81;;;-2.85;51.80
46846;BME280;33947;46.804;134.252;2024-03-25T12:20:32;101609.38;;;-2.88;51.52
46846;BME280;33947;46.804;134.252;2024-03-25T12:23:36;101611.47;;;-3.00;51.99
46846;BME280;33947;46.804;134.252;2024-03-25T12:26:40;101594.56;;;-3.10;51.96
46846;BME280;33947;46.804;134.252;2024-03-25T12:29:56;101598.63;;;-3.17;52.05
46846;BME280;33947;46.804;134.252;2024-03-25T12:33:01;101584.19;;;-3.71;55.35
46846;BME280;33947;46.804;134.252;2024-03-25T12:36:05;101601.63;;;-3.88;56.61
46846;BME280;33947;46.804;134.252;2024-03-25T12:39:16;101597.66;;;-3.99;57.54
46846;BME280;33947;46.804;134.252;2024-03-25T12:42:21;101603.06;;;-3.95;57.11
46846;BME280;33947;46.804;134.252;2024-03-25T12:45:28;101603.63;;;-4.40;59.04
46846;BME280;33947;46.804;134.252;2024-03-25T12:48:32;101607.50;;;-4.30;58.52
46846;BME280;33947;46.804;134.252;2024-03-25T12:51:36;101612.03;;;-4.26;58.55
46846;BME280;33947;46.804;134.252;2024-03-25T12:54:41;101612.13;;;-4.42;58.27
46846;BME280;33947;46.804;134.252;2024-03-25T12:57:45;101603.25;;;-4.47;58.33
46846;BME280;33947;46.804;134.252;2024-03-25T13:00:53;101616.38;;;-4.44;58.49
46846;BME280;33947;46.804;134.252;2024-03-25T13:03:58;101618.31;;;-4.58;59.65
46846;BME280;33947;46.804;134.252;2024-03-25T13:07:02;101622.75;;;-4.74;60.75
46846;BME280;33947;46.804;134.252;2024-03-25T13:10:07;101613.81;;;-4.43;59.43
46846;BME280;33947;46.804;134.252;2024-03-25T13:13:11;101618.00;;;-4.46;58.64
46846;BME280;33947;46.804;134.252;2024-03-25T13:16:17;101616.81;;;-4.35;58.20
46846;BME280;33947;46.804;134.252;2024-03-25T13:19:21;101623.44;;;-4.04;56.21
46846;BME280;33947;46.804;134.252;2024-03-25T13:22:25;101597.56;;;-4.21;56.46
46846;BME280;33947;46.804;134.252;2024-03-25T13:25:30;101623.34;;;-4.61;59.28
46846;BME280;33947;46.804;134.252;2024-03-25T13:28:34;101624.59;;;-4.71;59.31
46846;BME280;33947;46.804;134.252;2024-03-25T13:31:40;101611.81;;;-5.03;60.53
46846;BME280;33947;46.804;134.252;2024-03-25T13:34:44;101626.75;;;-4.81;60.07
46846;BME280;33947;46.804;134.252;2024-03-25T13:37:48;101632.59;;;-4.85;60.27
46846;BME280;33947;46.804;134.252;2024-03-25T13:40:52;101623.22;;;-4.99;60.50
46846;BME280;33947;46.804;134.252;2024-03-25T13:43:55;101637.41;;;-4.93;60.88
46846;BME280;33947;46.804;134.252;2024-03-25T13:47:01;101636.00;;;-5.04;61.16
46846;BME280;33947;46.804;134.252;2024-03-25T13:50:06;101642.81;;;-5.06;61.11
46846;BME280;33947;46.804;134.252;2024-03-25T13:53:10;101652.94;;;-5.11;62.76
46846;BME280;33947;46.804;134.252;2024-03-25T13:56:14;101654.78;;;-4.92;60.20
46846;BME280;33947;46.804;134.252;2024-03-25T13:59:18;101652.59;;;-5.00;59.95
46846;BME280;33947;46.804;134.252;2024-03-25T14:02:24;101645.19;;;-4.93;60.33
46846;BME280;33947;46.804;134.252;2024-03-25T14:05:29;101642.56;;;-4.76;58.20
46846;BME280;33947;46.804;134.252;2024-03-25T14:08:34;101645.41;;;-5.06;60.12
46846;BME280;33947;46.804;134.252;2024-03-25T14:11:38;101642.91;;;-5.21;61.08
46846;BME280;33947;46.804;134.252;2024-03-25T14:14:43;101633.53;;;-5.01;59.40
46846;BME280;33947;46.804;134.252;2024-03-25T14:17:49;101637.88;;;-5.18;60.71
46846;BME280;33947;46.804;134.252;2024-03-25T14:20:53;101642.22;;;-5.00;59.21
46846;BME280;33947;46.804;134.252;2024-03-25T14:23:58;101644.47;;;-4.90;58.79
46846;BME280;33947;46.804;134.252;2024-03-25T14:27:02;101642.97;;;-5.19;60.59
46846;BME280;33947;46.804;134.252;2024-03-25T14:30:08;101641.78;;;-5.26;61.51
46846;BME280;33947;46.804;134.252;2024-03-25T14:33:13;101634.00;;;-5.26;61.49
46846;BME280;33947;46.804;134.252;2024-03-25T14:36:17;101631.91;;;-5.33;61.45
46846;BME280;33947;46.804;134.252;2024-03-25T14:39:22;101635.63;;;-5.28;61.48
46846;BME280;33947;46.804;134.252;2024-03-25T14:42:27;101638.28;;;-5.27;61.34
46846;BME280;33947;46.804;134.252;2024-03-25T14:45:34;101630.75;;;-5.39;60.64
46846;BME280;33947;46.804;134.252;2024-03-25T14:48:40;101634.00;;;-5.26;61.42
46846;BME280;33947;46.804;134.252;2024-03-25T14:51:45;101634.56;;;-5.32;60.74
46846;BME280;33947;46.804;134.252;2024-03-25T14:54:49;101631.41;;;-5.43;61.70
46846;BME280;33947;46.804;134.252;2024-03-25T14:57:53;101632.81;;;-5.66;63.39
46846;BME280;33947;46.804;134.252;2024-03-25T15:00:57;101630.28;;;-5.81;63.54
46846;BME280;33947;46.804;134.252;2024-03-25T15:04:03;101627.69;;;-5.98;65.18
46846;BME280;33947;46.804;134.252;2024-03-25T15:07:08;101613.72;;;-5.85;64.30
46846;BME280;33947;46.804;134.252;2024-03-25T15:10:12;101611.19;;;-6.00;64.23
46846;BME280;33947;46.804;134.252;2024-03-25T15:13:16;101579.34;;;-6.14;64.28
46846;BME280;33947;46.804;134.252;2024-03-25T15:16:21;101606.31;;;-5.94;64.22
46846;BME280;33947;46.804;134.252;2024-03-25T15:19:27;101579.50;;;-5.94;63.91
46846;BME280;33947;46.804;134.252;2024-03-25T15:22:31;101606.88;;;-5.66;63.06
46846;BME280;33947;46.804;134.252;2024-03-25T15:25:35;101569.13;;;-5.94;62.94
46846;BME280;33947;46.804;134.252;2024-03-25T15:28:40;101602.91;;;-5.92;64.07
46846;BME280;33947;46.804;134.252;2024-03-25T15:31:44;101611.13;;;-5.85;63.22
46846;BME280;33947;46.804;134.252;2024-03-25T15:34:50;101617.75;;;-5.90;62.57
46846;BME280;33947;46.804;134.252;2024-03-25T15:37:54;101615.88;;;-6.41;65.63
46846;BME280;33947;46.804;134.252;2024-03-25T15:40:58;101607.06;;;-6.44;66.05
46846;BME280;33947;46.804;134.252;2024-03-25T15:44:03;101602.09;;;-6.71;66.73
46846;BME280;33947;46.804;134.252;2024-03-25T15:47:07;101599.69;;;-6.68;66.56
46846;BME280;33947;46.804;134.252;2024-03-25T15:50:13;101561.84;;;-6.66;65.96